Time;durP1;ratioP1;P1;durP2;ratioP2;P2;SDS_P1;SDS_P2;PMS_P1;PMS_P2;Temp;Humidity;BMP_temperature;BMP_pressure;BME280_temperature;BME280_humidity;BME280_pressure;Samples;Min_cycle;Max_cycle;Signal;HPM_P1;HPM_P2
2023/04/28 00:02:14;;;;;;;;;;;;;;;5.04;65.06;95438.13;5093556;28;1022;-60
2023/04/28 00:04:40;;;;;;;;;;;;;;;5.25;66.21;95443.56;5093819;28;972;-60
2023/04/28 00:07:06;;;;;;;;;;;;;;;5.24;67.03;95449.81;5093737;28;1917;-60
2023/04/28 00:09:32;;;;;;;;;;;;;;;4.68;67.33;95441.81;5093413;28;1258;-60
2023/04/28 00:11:58;;;;;;;;;;;;;;;4.47;67.46;95439.00;5093624;28;976;-60
2023/04/28 00:14:25;;;;;;;;;;;;;;;4.65;68.58;95439.44;5093195;28;1641;-60
2023/04/28 00:16:51;;;;;;;;;;;;;;;4.78;67.57;95436.66;5093380;28;1266;-60
2023/04/28 00:19:17;;;;;;;;;;;;;;;4.74;67.75;95425.44;5093325;28;1105;-60
2023/04/28 00:21:43;;;;;;;;;;;;;;;4.68;67.66;95445.31;5093684;28;1033;-60
2023/04/28 00:24:09;;;;;;;;;;;;;;;4.37;69.12;95449.47;5093642;28;969;-60
2023/04/28 00:26:35;;;;;;;;;;;;;;;4.28;69.40;95445.69;5093381;28;1909;-60
2023/04/28 00:29:01;;;;;;;;;;;;;;;4.18;69.08;95443.88;5093176;28;1137;-60
2023/04/28 00:31:27;;;;;;;;;;;;;;;4.19;70.11;95457.00;5092298;28;998;-60
2023/04/28 00:33:53;;;;;;;;;;;;;;;4.21;70.00;95454.22;5093250;28;1029;-60
2023/04/28 00:36:19;;;;;;;;;;;;;;;4.30;69.84;95458.81;5093447;28;1051;-60
2023/04/28 00:38:45;;;;;;;;;;;;;;;4.04;70.20;95463.41;5093207;28;1112;-60
2023/04/28 00:41:11;;;;;;;;;;;;;;;4.06;69.98;95453.53;5093261;28;1021;-60
2023/04/28 00:43:47;;;;;;;;;;;;;;;4.01;70.86;95464.50;5092107;28;966;-60
2023/04/28 00:46:39;;;;;;;;;;;;;;;3.78;71.12;95460.06;5093110;28;1909;-60
2023/04/28 00:49:05;;;;;;;;;;;;;;;3.87;70.90;95468.16;5093357;28;1122;-60
2023/04/28 00:51:32;;;;;;;;;;;;;;;3.96;70.94;95465.78;5097148;28;980;-60
2023/04/28 00:53:58;;;;;;;;;;;;;;;4.26;70.14;95460.84;5097103;28;1048;-60
2023/04/28 00:56:26;;;;;;;;;;;;;;;4.09;70.79;95462.09;5097222;28;965;-60
2023/04/28 00:58:52;;;;;;;;;;;;;;;3.54;71.88;95465.31;5097125;28;965;-60
2023/04/28 01:01:18;;;;;;;;;;;;;;;3.48;72.14;95462.16;5096760;28;1278;-60
2023/04/28 01:03:44;;;;;;;;;;;;;;;3.49;72.46;95473.56;5097088;28;1045;-60
2023/04/28 01:06:11;;;;;;;;;;;;;;;3.67;72.08;95477.53;5096797;28;1909;-60
2023/04/28 01:08:37;;;;;;;;;;;;;;;3.83;71.46;95472.00;5096898;28;1039;-60
2023/04/28 01:11:03;;;;;;;;;;;;;;;3.44;72.05;95465.97;5096999;28;1021;-60
2023/04/28 01:13:29;;;;;;;;;;;;;;;3.45;71.80;95466.81;5096483;28;1554;-60
2023/04/28 01:15:55;;;;;;;;;;;;;;;3.49;72.06;95471.78;5096368;28;1101;-61
2023/04/28 01:18:22;;;;;;;;;;;;;;;3.42;72.88;95467.03;5096655;28;1036;-60
2023/04/28 01:20:48;;;;;;;;;;;;;;;3.51;72.68;95469.88;5096816;28;1036;-61
2023/04/28 01:23:15;;;;;;;;;;;;;;;3.39;72.55;95462.81;5096545;28;1024;-60
2023/04/28 01:25:41;;;;;;;;;;;;;;;3.25;72.65;95468.25;5096316;28;1992;-60
2023/04/28 01:28:08;;;;;;;;;;;;;;;3.02;73.92;95473.34;5096295;28;1044;-60
2023/04/28 01:30:35;;;;;;;;;;;;;;;3.03;73.72;95468.91;5095365;28;1024;-61
2023/04/28 01:33:01;;;;;;;;;;;;;;;3.34;72.82;95464.94;5096368;28;1000;-61
2023/04/28 01:35:27;;;;;;;;;;;;;;;3.41;72.25;95476.75;5096395;28;980;-60
2023/04/28 01:37:53;;;;;;;;;;;;;;;3.27;72.31;95475.09;5096336;28;1056;-60
2023/04/28 01:40:19;;;;;;;;;;;;;;;3.23;72.54;95478.09;5094765;28;1618;-61
2023/04/28 01:42:45;;;;;;;;;;;;;;;3.47;72.25;95480.75;5096078;28;949;-61
2023/04/28 01:45:11;;;;;;;;;;;;;;;3.33;72.71;95479.94;5095733;28;1913;-61
2023/04/28 01:47:37;;;;;;;;;;;;;;;3.01;73.69;95490.13;5096123;28;1063;-61
2023/04/28 01:50:04;;;;;;;;;;;;;;;2.90;73.37;95482.97;5128909;27;1016;-61
2023/04/28 01:52:30;;;;;;;;;;;;;;;3.04;74.01;95486.44;5095966;28;984;-61
2023/04/28 01:54:56;;;;;;;;;;;;;;;2.97;73.98;95478.09;5095861;28;1060;-61
2023/04/28 01:57:22;;;;;;;;;;;;;;;3.02;74.21;95488.34;5095547;28;1140;-61
2023/04/28 01:59:48;;;;;;;;;;;;;;;2.70;74.95;95488.78;5095417;28;1076;-62
2023/04/28 02:02:14;;;;;;;;;;;;;;;2.60;75.19;95490.34;5095932;28;1135;-59
2023/04/28 02:04:40;;;;;;;;;;;;;;;2.70;75.28;95491.41;5095635;28;1100;-59
2023/04/28 02:07:06;;;;;;;;;;;;;;;2.74;75.09;95482.34;5095667;28;1906;-59
2023/04/28 02:09:32;;;;;;;;;;;;;;;2.97;74.69;95493.09;5094298;28;1128;-59
2023/04/28 02:11:59;;;;;;;;;;;;;;;2.94;75.17;95462.47;5095453;28;1079;-59
2023/04/28 02:14:25;;;;;;;;;;;;;;;2.99;74.68;95486.75;5095249;28;1627;-59
2023/04/28 02:16:51;;;;;;;;;;;;;;;2.62;75.29;95488.44;5095320;28;1270;-59
2023/04/28 02:19:17;;;;;;;;;;;;;;;2.54;75.16;95486.31;5095288;28;1115;-59
2023/04/28 02:21:43;;;;;;;;;;;;;;;2.67;74.92;95488.97;5095475;28;1020;-59
2023/04/28 02:24:09;;;;;;;;;;;;;;;2.62;74.75;95493.72;5094163;28;1127;-59
2023/04/28 02:26:36;;;;;;;;;;;;;;;2.70;74.71;95488.78;5095361;28;1906;-59
2023/04/28 02:29:04;;;;;;;;;;;;;;;2.83;75.08;95486.97;5095139;28;1017;-59
2023/04/28 02:31:30;;;;;;;;;;;;;;;2.49;75.41;95494.56;5095300;28;985;-59
2023/04/28 02:33:56;;;;;;;;;;;;;;;2.30;75.38;95499.38;5095252;28;1007;-58
2023/04/28 02:36:22;;;;;;;;;;;;;;;2.46;75.44;95494.75;5095259;28;1032;-59
2023/04/28 02:38:48;;;;;;;;;;;;;;;2.44;75.59;95496.66;5094871;28;1077;-59
2023/04/28 02:41:15;;;;;;;;;;;;;;;2.50;75.33;95503.31;5094790;28;1035;-59
2023/04/28 02:43:41;;;;;;;;;;;;;;;2.63;74.58;95501.53;5094875;28;984;-59
2023/04/28 02:46:07;;;;;;;;;;;;;;;2.81;75.14;95509.16;5094749;28;1992;-59
2023/04/28 02:48:34;;;;;;;;;;;;;;;2.97;75.08;95503.69;5093612;28;917;-59
2023/04/28 02:51:01;;;;;;;;;;;;;;;2.65;74.85;95515.47;5095009;28;1024;-59
2023/04/28 02:53:27;;;;;;;;;;;;;;;2.53;74.61;95521.59;5094954;28;961;-59
2023/04/28 02:55:53;;;;;;;;;;;;;;;2.68;75.58;95514.44;5094695;28;1063;-59
2023/04/28 02:58:19;;;;;;;;;;;;;;;2.41;75.35;95511.84;5094484;28;1028;-59
2023/04/28 03:00:45;;;;;;;;;;;;;;;2.14;75.73;95521.50;5094567;28;1080;-59
2023/04/28 03:03:11;;;;;;;;;;;;;;;2.22;75.99;95520.13;5094662;28;1007;-59
2023/04/28 03:05:37;;;;;;;;;;;;;;;2.28;76.16;95522.41;5094383;28;1989;-58
2023/04/28 03:08:04;;;;;;;;;;;;;;;2.23;75.42;95514.75;5094452;28;1193;-60
2023/04/28 03:10:30;;;;;;;;;;;;;;;2.12;76.64;95519.91;5092413;28;1096;-60
2023/04/28 03:12:56;;;;;;;;;;;;;;;2.33;76.22;95530.84;5094318;28;965;-59
2023/04/28 03:15:22;;;;;;;;;;;;;;;2.19;76.43;95529.09;5092976;28;1566;-60
2023/04/28 03:17:48;;;;;;;;;;;;;;;2.30;75.71;95528.41;5094416;28;1024;-60
2023/04/28 03:20:14;;;;;;;;;;;;;;;2.44;75.44;95528.31;5094086;28;1049;-60
2023/04/28 03:22:41;;;;;;;;;;;;;;;2.57;75.52;95523.06;5094271;28;974;-61
2023/04/28 03:25:07;;;;;;;;;;;;;;;2.38;75.22;95535.81;5094094;28;1906;-60
2023/04/28 03:27:33;;;;;;;;;;;;;;;2.40;76.21;95536.56;5093883;28;1029;-59
2023/04/28 03:29:59;;;;;;;;;;;;;;;2.39;75.52;95538.38;5094283;28;967;-59
2023/04/28 03:32:25;;;;;;;;;;;;;;;2.14;75.79;95547.03;5093977;28;1069;-59
2023/04/28 03:34:51;;;;;;;;;;;;;;;2.12;75.84;95551.56;5093951;28;1056;-59
2023/04/28 03:37:17;;;;;;;;;;;;;;;1.95;76.85;95550.00;5093827;28;1045;-59
2023/04/28 03:39:43;;;;;;;;;;;;;;;1.93;77.74;95558.00;5093991;28;948;-60
2023/04/28 03:42:09;;;;;;;;;;;;;;;2.23;77.19;95556.97;5094081;28;1027;-60
2023/04/28 03:44:35;;;;;;;;;;;;;;;2.19;76.60;95552.84;5093851;28;1085;-60
2023/04/28 03:47:01;;;;;;;;;;;;;;;1.99;76.77;95567.31;5093847;28;1989;-59
2023/04/28 03:49:27;;;;;;;;;;;;;;;1.91;77.23;95573.09;5093841;28;957;-60
2023/04/28 03:51:53;;;;;;;;;;;;;;;1.77;76.63;95577.56;5093920;28;1044;-58
2023/04/28 03:54:20;;;;;;;;;;;;;;;1.82;77.38;95572.84;5093882;28;989;-59
2023/04/28 03:56:46;;;;;;;;;;;;;;;2.06;77.15;95580.97;5092358;28;1033;-59
2023/04/28 03:59:12;;;;;;;;;;;;;;;2.33;76.30;95583.59;5126178;27;1057;-58
2023/04/28 04:01:38;;;;;;;;;;;;;;;2.48;75.73;95581.75;5093617;28;1232;-58
2023/04/28 04:04:04;;;;;;;;;;;;;;;2.72;75.63;95584.56;5093538;28;1049;-58
2023/04/28 04:06:31;;;;;;;;;;;;;;;2.78;75.39;95583.31;5093664;28;1914;-59
2023/04/28 04:08:57;;;;;;;;;;;;;;;2.59;74.78;95589.81;5093506;28;1080;-58
2023/04/28 04:11:23;;;;;;;;;;;;;;;2.71;74.64;95585.50;5093562;28;968;-59
2023/04/28 04:13:49;;;;;;;;;;;;;;;2.89;74.94;95581.63;5093642;28;1252;-58
2023/04/28 04:16:15;;;;;;;;;;;;;;;3.26;73.99;95587.06;5093228;28;1096;-59
2023/04/28 04:18:41;;;;;;;;;;;;;;;3.47;72.22;95592.66;5093525;28;1059;-57
2023/04/28 04:21:07;;;;;;;;;;;;;;;3.51;73.27;95595.94;5093648;28;965;-59
2023/04/28 04:23:34;;;;;;;;;;;;;;;3.80;73.03;95591.22;5097311;28;1045;-59
2023/04/28 04:26:00;;;;;;;;;;;;;;;4.11;72.23;95600.44;5097680;28;1918;-59
2023/04/28 04:28:26;;;;;;;;;;;;;;;4.20;72.09;95598.09;5097680;28;1035;-59
2023/04/28 04:30:52;;;;;;;;;;;;;;;4.56;70.66;95599.03;5096545;28;1079;-59
2023/04/28 04:33:18;;;;;;;;;;;;;;;5.05;67.98;95600.66;5097303;28;1174;-59
2023/04/28 04:35:44;;;;;;;;;;;;;;;5.10;67.92;95606.44;5097662;28;1032;-59
2023/04/28 04:38:12;;;;;;;;;;;;;;;5.15;68.25;95606.94;5097417;28;980;-59
2023/04/28 04:40:38;;;;;;;;;;;;;;;5.32;68.48;95608.28;5097427;28;1004;-60
2023/04/28 04:43:04;;;;;;;;;;;;;;;5.54;68.03;95609.28;5097515;28;1079;-60
2023/04/28 04:45:30;;;;;;;;;;;;;;;5.57;67.38;95609.88;5097233;28;1914;-60
2023/04/28 04:47:56;;;;;;;;;;;;;;;5.77;67.99;95613.66;5097395;28;963;-60
2023/04/28 04:50:23;;;;;;;;;;;;;;;5.71;68.82;95621.22;5097130;28;1016;-60
2023/04/28 04:52:49;;;;;;;;;;;;;;;5.65;67.67;95617.25;5097093;28;989;-60
2023/04/28 04:55:15;;;;;;;;;;;;;;;5.79;67.00;95619.69;5095706;28;1044;-60
2023/04/28 04:57:41;;;;;;;;;;;;;;;6.09;64.92;95620.06;5097200;28;1051;-60
2023/04/28 05:00:08;;;;;;;;;;;;;;;6.53;63.36;95628.94;5095767;28;1085;-60
2023/04/28 05:02:34;;;;;;;;;;;;;;;6.73;62.94;95620.16;5096822;28;1096;-60
2023/04/28 05:05:00;;;;;;;;;;;;;;;6.79;61.66;95619.69;5096857;28;1036;-60
2023/04/28 05:07:26;;;;;;;;;;;;;;;7.09;60.74;95626.06;5096355;28;1969;-58
2023/04/28 05:09:52;;;;;;;;;;;;;;;7.38;61.29;95622.75;5096570;28;1036;-59
2023/04/28 05:12:18;;;;;;;;;;;;;;;7.46;60.04;95617.66;5096969;28;1048;-59
2023/04/28 05:14:44;;;;;;;;;;;;;;;7.43;58.28;95615.25;5096673;28;1350;-60
2023/04/28 05:17:11;;;;;;;;;;;;;;;7.74;58.10;95628.56;5096476;28;1190;-59
2023/04/28 05:19:37;;;;;;;;;;;;;;;7.97;56.71;95623.94;5096847;28;1059;-59
2023/04/28 05:22:03;;;;;;;;;;;;;;;8.30;58.42;95622.78;5096612;28;1043;-60
2023/04/28 05:24:29;;;;;;;;;;;;;;;8.26;57.32;95623.22;5095799;28;1100;-60
2023/04/28 05:26:57;;;;;;;;;;;;;;;8.25;56.28;95627.69;5095567;28;1993;-59
2023/04/28 05:29:23;;;;;;;;;;;;;;;8.40;54.81;95623.69;5096023;28;1045;-60
2023/04/28 05:31:49;;;;;;;;;;;;;;;8.66;56.80;95627.69;5095934;28;1049;-60
2023/04/28 05:34:15;;;;;;;;;;;;;;;8.86;54.84;95628.53;5094951;28;1044;-60
2023/04/28 05:36:41;;;;;;;;;;;;;;;8.90;56.40;95624.66;5096255;28;1071;-60
2023/04/28 05:39:07;;;;;;;;;;;;;;;8.95;54.87;95625.03;5095992;28;1023;-61
2023/04/28 05:41:34;;;;;;;;;;;;;;;9.10;54.84;95618.31;5093885;28;965;-62
2023/04/28 05:44:00;;;;;;;;;;;;;;;9.33;57.46;95612.69;5095044;28;1075;-61
2023/04/28 05:46:26;;;;;;;;;;;;;;;9.57;55.97;95629.09;5095972;28;1978;-62
2023/04/28 05:48:53;;;;;;;;;;;;;;;9.73;54.23;95623.16;5095957;28;1031;-62
2023/04/28 05:51:19;;;;;;;;;;;;;;;9.70;53.52;95622.59;5095834;28;1118;-62
2023/04/28 05:53:47;;;;;;;;;;;;;;;9.78;53.65;95620.06;5096273;28;953;-62
2023/04/28 05:56:14;;;;;;;;;;;;;;;10.12;54.23;95622.19;5095802;28;1047;-62
2023/04/28 05:58:40;;;;;;;;;;;;;;;10.38;51.95;95633.09;5094503;28;1016;-62
2023/04/28 06:01:06;;;;;;;;;;;;;;;10.65;51.01;95631.41;5095640;28;1052;-62
2023/04/28 06:03:32;;;;;;;;;;;;;;;10.90;51.28;95629.81;5095567;28;1028;-62
2023/04/28 06:05:58;;;;;;;;;;;;;;;11.20;51.96;95639.31;5094320;28;1992;-63
2023/04/28 06:08:24;;;;;;;;;;;;;;;11.20;50.24;95638.50;5095652;28;961;-62
2023/04/28 06:10:50;;;;;;;;;;;;;;;11.27;50.13;95620.81;5095375;28;1056;-62
2023/04/28 06:13:16;;;;;;;;;;;;;;;11.76;48.75;95628.38;5095204;28;1645;-62
2023/04/28 06:15:42;;;;;;;;;;;;;;;12.13;48.62;95632.69;5095353;28;1222;-63
2023/04/28 06:18:08;;;;;;;;;;;;;;;12.42;47.96;95626.97;5095581;28;1052;-62
2023/04/28 06:20:34;;;;;;;;;;;;;;;12.93;45.69;95635.03;5095250;28;1049;-62
2023/04/28 06:23:02;;;;;;;;;;;;;;;13.09;45.49;95633.22;5095638;28;1434;-57
2023/04/28 06:25:28;;;;;;;;;;;;;;;13.05;46.41;95629.19;5095285;28;1902;-62
2023/04/28 06:27:54;;;;;;;;;;;;;;;12.80;47.36;95628.25;5095197;28;1032;-58
2023/04/28 06:30:22;;;;;;;;;;;;;;;12.94;45.30;95634.88;5095135;28;1080;-64
2023/04/28 06:32:48;;;;;;;;;;;;;;;12.95;45.29;95628.47;5095273;28;966;-61
2023/04/28 06:35:15;;;;;;;;;;;;;;;13.35;45.69;95634.13;5095284;28;957;-61
2023/04/28 06:37:41;;;;;;;;;;;;;;;13.55;44.89;95632.78;5095021;28;965;-62
2023/04/28 06:40:07;;;;;;;;;;;;;;;13.48;44.00;95632.59;5094738;28;1052;-62
2023/04/28 06:42:33;;;;;;;;;;;;;;;13.76;45.09;95626.91;5095095;28;961;-62
2023/04/28 06:44:59;;;;;;;;;;;;;;;13.69;42.81;95630.44;5094309;28;976;-62
2023/04/28 06:47:25;;;;;;;;;;;;;;;13.94;42.97;95637.47;5094374;28;1994;-62
2023/04/28 06:49:51;;;;;;;;;;;;;;;14.61;41.23;95644.41;5094884;28;1000;-62
2023/04/28 06:52:17;;;;;;;;;;;;;;;15.21;40.31;95646.47;5094888;28;1013;-61
2023/04/28 06:54:43;;;;;;;;;;;;;;;15.01;38.17;95651.44;5094602;28;965;-62
2023/04/28 06:57:09;;;;;;;;;;;;;;;14.74;39.74;95651.91;5094606;28;1274;-62
2023/04/28 06:59:36;;;;;;;;;;;;;;;15.06;39.42;95650.06;5094699;28;1285;-62
2023/04/28 07:02:02;;;;;;;;;;;;;;;14.99;37.51;95653.47;5094695;28;993;-62
2023/04/28 07:04:28;;;;;;;;;;;;;;;14.88;38.37;95655.72;5094528;28;957;-62
2023/04/28 07:06:55;;;;;;;;;;;;;;;15.04;36.62;95655.63;5094485;28;1914;-62
2023/04/28 07:09:21;;;;;;;;;;;;;;;15.62;35.95;95658.81;5093314;28;1253;-63
2023/04/28 07:11:47;;;;;;;;;;;;;;;15.89;36.41;95643.13;5094588;28;1020;-62
2023/04/28 07:14:13;;;;;;;;;;;;;;;16.30;37.40;95650.84;5094106;28;1614;-62
2023/04/28 07:16:39;;;;;;;;;;;;;;;15.69;35.65;95664.31;5094176;28;1088;-62
2023/04/28 07:19:05;;;;;;;;;;;;;;;15.89;34.73;95653.91;5094604;28;1031;-62
2023/04/28 07:21:31;;;;;;;;;;;;;;;16.18;34.79;95659.38;5094045;28;1045;-62
2023/04/28 07:23:57;;;;;;;;;;;;;;;16.44;33.64;95657.25;5094006;28;993;-63
2023/04/28 07:26:23;;;;;;;;;;;;;;;16.61;33.50;95657.91;5094191;28;1910;-63
2023/04/28 07:28:50;;;;;;;;;;;;;;;16.82;34.31;95655.31;5094306;28;1063;-63
2023/04/28 07:31:16;;;;;;;;;;;;;;;16.89;33.38;95656.25;5094075;28;1035;-63
2023/04/28 07:33:42;;;;;;;;;;;;;;;16.49;34.11;95646.75;5093933;28;918;-62
2023/04/28 07:36:08;;;;;;;;;;;;;;;16.76;33.11;95650.66;5094061;28;969;-62
2023/04/28 07:38:34;;;;;;;;;;;;;;;16.79;34.48;95655.69;5094031;28;1036;-62
2023/04/28 07:41:01;;;;;;;;;;;;;;;16.80;32.58;95662.75;5093864;28;1025;-62
2023/04/28 07:43:27;;;;;;;;;;;;;;;16.94;32.70;95653.84;5093908;28;965;-62
2023/04/28 07:45:53;;;;;;;;;;;;;;;17.15;32.42;95655.75;5093978;28;1913;-63
2023/04/28 07:48:19;;;;;;;;;;;;;;;17.30;33.37;95658.44;5093963;28;1035;-63
2023/04/28 07:50:46;;;;;;;;;;;;;;;17.32;32.82;95663.63;5094090;28;1043;-62
2023/04/28 07:53:12;;;;;;;;;;;;;;;16.77;32.83;95661.28;5092381;28;1011;-62
2023/04/28 07:55:40;;;;;;;;;;;;;;;16.94;35.29;95648.44;5093681;28;1088;-63
2023/04/28 07:58:07;;;;;;;;;;;;;;;17.19;33.16;95650.81;5093619;28;1103;-63
2023/04/28 08:00:33;;;;;;;;;;;;;;;17.53;32.63;95652.84;5092381;28;1097;-62
2023/04/28 08:02:59;;;;;;;;;;;;;;;17.37;31.54;95664.72;5093685;28;1006;-59
2023/04/28 08:05:25;;;;;;;;;;;;;;;17.25;32.71;95655.44;5093386;28;1983;-62
2023/04/28 08:07:51;;;;;;;;;;;;;;;17.04;32.52;95658.94;5093366;28;1041;-63
2023/04/28 08:10:18;;;;;;;;;;;;;;;16.97;33.13;95652.63;5093620;28;1044;-65
2023/04/28 08:12:44;;;;;;;;;;;;;;;17.38;31.32;95649.38;5093805;28;985;-64
2023/04/28 08:15:11;;;;;;;;;;;;;;;17.46;32.00;95651.94;5093249;28;1561;-65
2023/04/28 08:17:38;;;;;;;;;;;;;;;17.55;32.27;95639.97;5126025;28;1112;-65
2023/04/28 08:20:05;;;;;;;;;;;;;;;17.42;31.18;95639.84;5093442;28;1055;-64
2023/04/28 08:22:31;;;;;;;;;;;;;;;17.52;31.84;95640.34;5093532;28;1031;-64
2023/04/28 08:24:57;;;;;;;;;;;;;;;17.96;32.29;95635.78;5093622;28;1000;-65
2023/04/28 08:27:24;;;;;;;;;;;;;;;17.89;30.96;95640.28;5093432;28;1979;-65
2023/04/28 08:29:50;;;;;;;;;;;;;;;17.88;30.15;95644.06;5093530;28;1071;-64
2023/04/28 08:32:16;;;;;;;;;;;;;;;17.54;31.69;95637.47;5092170;28;973;-65
2023/04/28 08:34:42;;;;;;;;;;;;;;;17.95;31.09;95632.25;5092426;28;1021;-65
2023/04/28 08:37:08;;;;;;;;;;;;;;;18.05;30.59;95634.63;5093056;28;1033;-65
2023/04/28 08:39:34;;;;;;;;;;;;;;;18.16;31.68;95629.72;5093070;28;908;-66
2023/04/28 08:42:04;;;;;;;;;;;;;;;18.15;32.10;95628.88;5093246;28;1065;-66
2023/04/28 08:44:39;;;;;;;;;;;;;;;17.90;30.41;95639.28;5093113;28;1048;-65
2023/04/28 08:47:11;;;;;;;;;;;;;;;18.00;30.62;95631.66;5093248;28;1989;-64
2023/04/28 08:49:37;;;;;;;;;;;;;;;18.05;31.98;95628.38;5093460;28;1004;-66
2023/04/28 08:52:08;;;;;;;;;;;;;;;17.84;29.12;95631.91;5093332;28;1048;-64
2023/04/28 08:54:34;;;;;;;;;;;;;;;18.11;30.47;95625.72;5093258;28;1012;-61
2023/04/28 08:57:01;;;;;;;;;;;;;;;18.41;30.29;95627.38;5091920;28;1048;-61
2023/04/28 08:59:27;;;;;;;;;;;;;;;19.00;31.09;95620.66;5093327;28;981;-61
2023/04/28 09:01:53;;;;;;;;;;;;;;;18.92;28.82;95635.22;5093039;28;1065;-60
2023/04/28 09:04:19;;;;;;;;;;;;;;;18.61;30.02;95631.06;5093213;28;1143;-60
2023/04/28 09:06:45;;;;;;;;;;;;;;;18.39;29.66;95630.28;5093256;28;1909;-59
2023/04/28 09:09:25;;;;;;;;;;;;;;;18.41;30.38;95619.28;5094649;28;961;-63
2023/04/28 09:11:58;;;;;;;;;;;;;;;18.43;29.67;95625.31;5095686;28;1006;-63
2023/04/28 09:14:25;;;;;;;;;;;;;;;18.57;30.94;95616.22;5096518;28;1633;-61
2023/04/28 09:16:51;;;;;;;;;;;;;;;18.66;30.57;95612.31;5096398;28;1077;-62
2023/04/28 09:19:17;;;;;;;;;;;;;;;18.26;29.73;95611.25;5095671;28;1041;-65
2023/04/28 09:21:56;;;;;;;;;;;;;;;18.51;29.88;95614.31;5095821;28;1325;-64
2023/04/28 09:24:29;;;;;;;;;;;;;;;18.67;28.16;95611.31;5096608;28;972;-64
2023/04/28 09:26:56;;;;;;;;;;;;;;;18.90;28.90;95604.78;5095132;28;1909;-64
2023/04/28 09:29:22;;;;;;;;;;;;;;;18.82;28.59;95604.94;5096133;28;1100;-64
2023/04/28 09:31:48;;;;;;;;;;;;;;;19.10;28.86;95596.69;5096692;28;1044;-64
2023/04/28 09:34:14;;;;;;;;;;;;;;;19.29;29.60;95597.81;5096274;28;1031;-64
2023/04/28 09:36:40;;;;;;;;;;;;;;;19.37;29.57;95592.22;5096105;28;1104;-63
2023/04/28 09:39:06;;;;;;;;;;;;;;;19.15;28.15;95586.09;5096441;28;1012;-63
2023/04/28 09:41:39;;;;;;;;;;;;;;;19.28;29.03;95583.41;5096090;28;1001;-64
2023/04/28 09:44:23;;;;;;;;;;;;;;;19.22;28.32;95591.56;5096342;28;961;-64
2023/04/28 09:46:49;;;;;;;;;;;;;;;18.87;27.16;95584.31;5094950;28;1906;-64
2023/04/28 09:49:15;;;;;;;;;;;;;;;19.00;30.01;95577.28;5096202;28;985;-64
2023/04/28 09:51:41;;;;;;;;;;;;;;;18.79;26.75;95579.06;5094826;28;1063;-63
2023/04/28 09:54:07;;;;;;;;;;;;;;;18.87;28.47;95573.47;5094796;28;1052;-58
2023/04/28 09:56:37;;;;;;;;;;;;;;;18.88;26.78;95572.47;5095683;28;1033;-63
2023/04/28 09:59:03;;;;;;;;;;;;;;;18.68;27.55;95568.78;5094908;28;988;-62
2023/04/28 10:01:37;;;;;;;;;;;;;;;18.95;27.71;95564.34;5095659;28;1123;-63
2023/04/28 10:04:03;;;;;;;;;;;;;;;18.68;27.79;95563.38;5095680;28;1009;-63
2023/04/28 10:06:31;;;;;;;;;;;;;;;18.77;27.58;95556.75;5095682;28;1997;-61
2023/04/28 10:08:59;;;;;;;;;;;;;;;18.81;27.90;95554.50;5094300;28;1128;-60
2023/04/28 10:11:25;;;;;;;;;;;;;;;18.43;26.54;95554.94;5093443;28;2537;-58
2023/04/28 10:13:52;;;;;;;;;;;;;;;18.27;27.80;95556.94;5095447;28;1566;-59
2023/04/28 10:16:18;;;;;;;;;;;;;;;18.53;27.98;95541.84;5095144;28;1088;-58
2023/04/28 10:18:44;;;;;;;;;;;;;;;18.71;26.72;95546.72;5095472;28;978;-57
2023/04/28 10:21:11;;;;;;;;;;;;;;;18.73;28.48;95539.25;5095146;28;1221;-57
2023/04/28 10:23:49;;;;;;;;;;;;;;;18.49;27.93;95537.88;5095211;28;1096;-57
2023/04/28 10:26:20;;;;;;;;;;;;;;;18.70;27.72;95539.63;5095273;28;1938;-57
2023/04/28 10:28:47;;;;;;;;;;;;;;;19.25;27.63;95518.75;5095197;28;1041;-58
2023/04/28 10:31:14;;;;;;;;;;;;;;;19.28;26.53;95515.66;5095234;28;1047;-57
2023/04/28 10:33:41;;;;;;;;;;;;;;;19.11;27.70;95507.06;5095163;28;1016;-57
2023/04/28 10:36:07;;;;;;;;;;;;;;;19.06;26.64;95519.56;5093774;28;1045;-57
2023/04/28 10:38:33;;;;;;;;;;;;;;;19.10;27.77;95509.97;5095121;28;1060;-58
2023/04/28 10:41:01;;;;;;;;;;;;;;;18.98;27.70;95508.94;5093796;28;973;-57
2023/04/28 10:43:27;;;;;;;;;;;;;;;19.09;27.94;95511.03;5094826;28;1095;-57
2023/04/28 10:48:21;;;;;;;;;;;;;;;19.23;27.11;95501.03;5094726;28;1029;-57
2023/04/28 10:51:05;;;;;;;;;;;;;;;19.10;27.93;95493.72;5094911;28;1049;-58
2023/04/28 10:53:44;;;;;;;;;;;;;;;19.31;28.68;95487.28;5094939;28;1008;-58
2023/04/28 10:56:11;;;;;;;;;;;;;;;19.10;27.91;95489.16;5094701;28;1110;-58
2023/04/28 10:58:41;;;;;;;;;;;;;;;19.26;28.32;95487.91;5094698;28;1048;-58
2023/04/28 11:01:19;;;;;;;;;;;;;;;19.18;26.54;95474.56;5094875;28;1023;-57
2023/04/28 11:03:46;;;;;;;;;;;;;;;19.42;28.64;95472.28;5093532;28;1008;-58
2023/04/28 11:06:28;;;;;;;;;;;;;;;19.66;27.88;95468.94;5094337;28;2018;-58
2023/04/28 11:08:59;;;;;;;;;;;;;;;19.22;26.40;95472.28;5093285;28;1112;-57
2023/04/28 11:11:26;;;;;;;;;;;;;;;19.23;28.49;95461.22;5094327;28;1500;-56
2023/04/28 11:14:12;;;;;;;;;;;;;;;19.52;29.54;95456.44;5094533;28;1378;-58
2023/04/28 11:16:50;;;;;;;;;;;;;;;19.34;25.93;95459.75;5094029;28;1210;-57
2023/04/28 11:19:21;;;;;;;;;;;;;;;19.23;27.48;95444.94;5094323;28;1255;-57
2023/04/28 11:21:47;;;;;;;;;;;;;;;19.36;27.57;95441.41;5094449;28;1033;-56
2023/04/28 11:24:14;;;;;;;;;;;;;;;19.51;28.26;95441.19;5093884;28;1037;-56
2023/04/28 11:26:41;;;;;;;;;;;;;;;19.49;26.11;95438.69;5094268;28;1905;-58
2023/04/28 11:29:07;;;;;;;;;;;;;;;19.35;26.93;95436.19;5094237;28;961;-58
2023/04/28 11:31:33;;;;;;;;;;;;;;;19.16;27.19;95440.56;5093703;28;961;-57
2023/04/28 11:34:03;;;;;;;;;;;;;;;19.17;26.92;95429.53;5094116;28;1019;-57
2023/04/28 11:36:34;;;;;;;;;;;;;;;19.14;25.91;95423.69;5094148;28;1024;-57
2023/04/28 11:39:01;;;;;;;;;;;;;;;19.17;25.74;95431.41;5094074;28;1001;-61
2023/04/28 11:41:27;;;;;;;;;;;;;;;19.29;28.10;95419.75;5092838;28;973;-59
2023/04/28 11:43:53;;;;;;;;;;;;;;;19.32;27.46;95421.19;5092656;28;1037;-59
2023/04/28 11:46:20;;;;;;;;;;;;;;;19.37;28.13;95409.69;5093786;28;1992;-59
2023/04/28 11:48:47;;;;;;;;;;;;;;;19.46;28.03;95412.00;5094007;28;1008;-59
2023/04/28 11:51:28;;;;;;;;;;;;;;;19.57;28.52;95404.28;5093601;28;992;-59
2023/04/28 11:53:54;;;;;;;;;;;;;;;19.44;26.35;95399.69;5093769;28;962;-59
2023/04/28 11:56:20;;;;;;;;;;;;;;;18.98;26.02;95390.53;5093864;28;1055;-59
2023/04/28 11:58:58;;;;;;;;;;;;;;;18.83;25.98;95392.59;5093806;28;981;-59
2023/04/28 12:01:24;;;;;;;;;;;;;;;18.91;26.34;95393.25;5093669;28;1024;-59
2023/04/28 12:03:51;;;;;;;;;;;;;;;19.30;27.27;95390.75;5093471;28;949;-59
2023/04/28 12:06:20;;;;;;;;;;;;;;;19.67;27.10;95381.09;5093434;28;1910;-59
2023/04/28 12:08:46;;;;;;;;;;;;;;;19.61;26.35;95381.94;5093750;28;1024;-59
2023/04/28 12:11:13;;;;;;;;;;;;;;;19.82;27.31;95380.03;5093275;28;1068;-59
2023/04/28 12:13:40;;;;;;;;;;;;;;;19.77;26.80;95379.84;5093465;28;1565;-58
2023/04/28 12:16:06;;;;;;;;;;;;;;;19.83;27.51;95381.72;5093272;28;1116;-59
2023/04/28 12:18:35;;;;;;;;;;;;;;;19.57;26.64;95377.97;5093377;28;1047;-60
2023/04/28 12:21:02;;;;;;;;;;;;;;;19.59;26.48;95386.72;5093496;28;1029;-59
2023/04/28 12:23:31;;;;;;;;;;;;;;;19.35;26.74;95373.84;5093216;28;1041;-57
2023/04/28 12:25:58;;;;;;;;;;;;;;;19.18;26.25;95371.56;5093562;28;1909;-59
2023/04/28 12:28:35;;;;;;;;;;;;;;;19.07;26.22;95362.19;5092271;28;1032;-59
2023/04/28 12:31:02;;;;;;;;;;;;;;;19.30;26.48;95366.34;5092118;28;1074;-59
2023/04/28 12:33:29;;;;;;;;;;;;;;;19.59;27.29;95361.50;5091991;28;1131;-57
2023/04/28 12:35:55;;;;;;;;;;;;;;;19.62;26.68;95361.91;5093068;28;1449;-59
2023/04/28 12:38:25;;;;;;;;;;;;;;;19.31;27.41;95357.16;5092033;28;1037;-60
2023/04/28 12:40:51;;;;;;;;;;;;;;;19.36;27.14;95360.06;5093111;28;1104;-59
2023/04/28 12:43:17;;;;;;;;;;;;;;;19.34;27.08;95359.44;5094853;28;977;-59
2023/04/28 12:45:43;;;;;;;;;;;;;;;18.87;27.34;95351.34;5097035;28;1914;-59
2023/04/28 12:48:09;;;;;;;;;;;;;;;18.57;26.39;95360.88;5097341;28;1011;-58
2023/04/28 12:50:36;;;;;;;;;;;;;;;18.57;27.17;95356.28;5096097;28;1485;-59
2023/04/28 12:53:02;;;;;;;;;;;;;;;18.50;26.33;95356.28;5096935;28;1045;-59
2023/04/28 12:55:28;;;;;;;;;;;;;;;18.56;26.01;95349.22;5096888;28;1095;-59
2023/04/28 12:57:54;;;;;;;;;;;;;;;18.77;26.59;95355.50;5097058;28;1059;-59
2023/04/28 13:00:22;;;;;;;;;;;;;;;18.70;26.62;95350.06;5097113;28;1052;-59
2023/04/28 13:02:48;;;;;;;;;;;;;;;18.68;24.91;95347.53;5129543;27;1092;-59
2023/04/28 13:05:14;;;;;;;;;;;;;;;18.76;26.97;95342.97;5095361;28;1611;-59